Terminal Aerodrome Forecast
Issued by NWS Shreveport, LA

Home | Current Version | Previous Version | Text Only | Print | Product List | Glossary On
Versions: 1 2 3 4 5 6 7 8 9 10 11 12 13 14 15 16 17 18 19 20 21 22
000
FTUS44 KSHV 280804 AAA
TAFSHV
TAF AMD
KSHV 280804Z 2808/2906 VRB03KT P6SM OVC013
      TEMPO 2809/2813 1SM BR OVC005
     FM281600 20010KT P6SM SCT040
      TEMPO 2816/2818 BKN030
     FM290100 16005KT P6SM SKC=

USA.gov is the U.S. government's official web portal to all federal, state and local government web resources and services.